Time;durP1;ratioP1;P1;durP2;ratioP2;P2;SDS_P1;SDS_P2;PMS_P1;PMS_P2;Temp;Humidity;BMP_temperature;BMP_pressure;BME280_temperature;BME280_humidity;BME280_pressure;Samples;Min_cycle;Max_cycle;Signal;HPM_P1;HPM_P2
2023/12/09 00:00:55;;;;;;;;;10.50;9.00;;;;;21.48;43.22;101068.06;112127;1247;20098;-31
2023/12/09 00:03:37;;;;;;;;;13.00;10.67;;;;;21.49;43.05;101065.23;112072;1247;20732;-31
2023/12/09 00:06:05;;;;;;;;;11.00;11.00;;;;;21.48;43.26;101069.42;112192;1262;20247;-31
2023/12/09 00:08:32;;;;;;;;;10.00;9.33;;;;;21.47;43.12;101070.08;112077;1262;19981;-30
2023/12/09 00:10:59;;;;;;;;;13.33;10.00;;;;;21.49;43.19;101073.41;112192;1262;21060;-31
2023/12/09 00:13:27;;;;;;;;;10.50;8.00;;;;;21.47;43.23;101067.95;112086;1251;19998;-31
2023/12/09 00:15:54;;;;;;;;;11.00;8.00;;;;;21.47;43.10;101067.30;112204;1247;20068;-31
2023/12/09 00:18:22;;;;;;;;;10.00;8.00;;;;;21.47;43.05;101063.21;112070;1247;21068;-31
2023/12/09 00:20:49;;;;;;;;;8.00;8.00;;;;;21.46;42.92;101057.59;112225;1256;19924;-31
2023/12/09 00:23:17;;;;;;;;;11.00;10.00;;;;;21.46;42.83;101055.14;112072;1262;18617;-31
2023/12/09 00:25:44;;;;;;;;;13.33;11.00;;;;;21.45;42.79;101053.02;112242;1262;20533;-31
2023/12/09 00:28:12;;;;;;;;;11.50;10.50;;;;;21.45;42.76;101051.64;112070;1247;19990;-31
2023/12/09 00:30:39;;;;;;;;;8.67;8.00;;;;;21.46;42.98;101047.73;112212;1247;21326;-31
2023/12/09 00:33:06;;;;;;;;;11.00;8.00;;;;;21.45;42.74;101044.66;112023;1263;19466;-31
2023/12/09 00:35:34;;;;;;;;;10.00;7.33;;;;;21.46;42.80;101045.98;112212;1250;19673;-31
2023/12/09 00:38:02;;;;;;;;;8.00;7.00;;;;;21.47;42.92;101045.98;112079;1248;20111;-31
2023/12/09 00:40:29;;;;;;;;;10.00;10.00;;;;;21.46;42.69;101046.69;112225;1263;19366;-30
2023/12/09 00:42:56;;;;;;;;;10.00;10.00;;;;;21.46;42.74;101050.39;112028;1263;19920;-31
2023/12/09 00:45:25;;;;;;;;;13.00;10.00;;;;;21.45;42.77;101052.19;112226;1263;18701;-31
2023/12/09 00:47:52;;;;;;;;;12.00;8.00;;;;;21.45;42.80;101048.86;111977;1248;21956;-31
2023/12/09 00:50:19;;;;;;;;;8.00;8.00;;;;;21.46;42.77;101051.98;112214;1247;20312;-31
2023/12/09 00:52:47;;;;;;;;;12.00;10.00;;;;;21.44;42.85;101046.25;112004;1250;19965;-31
2023/12/09 00:55:14;;;;;;;;;13.00;7.50;;;;;21.44;42.52;101045.32;112211;1255;20918;-31
2023/12/09 00:57:42;;;;;;;;;10.50;9.00;;;;;21.45;42.37;101041.50;112020;1263;19982;-31
2023/12/09 01:00:09;;;;;;;;;9.50;7.00;;;;;21.44;42.69;101041.34;112186;1257;18816;-31
2023/12/09 01:02:38;;;;;;;;;11.00;8.00;;;;;21.45;42.70;101042.77;112001;1248;20898;-31
2023/12/09 01:05:06;;;;;;;;;8.00;7.00;;;;;21.43;42.75;101041.77;112096;1247;19619;-31
2023/12/09 01:07:33;;;;;;;;;13.00;10.50;;;;;21.42;42.72;101041.34;112200;1263;18609;-31
2023/12/09 01:10:01;;;;;;;;;10.00;7.00;;;;;21.43;42.44;101042.31;112066;1263;19780;-31
2023/12/09 01:12:28;;;;;;;;;7.00;7.00;;;;;21.43;42.75;101037.73;112159;1263;18784;-31
2023/12/09 01:14:55;;;;;;;;;9.33;8.00;;;;;21.42;42.71;101035.73;112103;1248;21324;-30
2023/12/09 01:17:23;;;;;;;;;7.00;7.00;;;;;21.42;42.67;101030.81;112058;1251;20813;-31
2023/12/09 01:19:50;;;;;;;;;7.00;7.00;;;;;21.42;42.70;101030.38;112133;1263;18427;-31
2023/12/09 01:22:18;;;;;;;;;10.00;8.33;;;;;21.42;42.60;101033.60;111958;1248;20076;-31
2023/12/09 01:24:45;;;;;;;;;8.00;7.00;;;;;21.41;42.52;101031.19;112122;1263;20798;-31
2023/12/09 01:27:12;;;;;;;;;8.00;7.00;;;;;21.42;42.66;101037.14;111988;1248;20205;-31
2023/12/09 01:29:40;;;;;;;;;13.00;8.50;;;;;21.41;42.43;101036.86;112190;1248;18636;-31
2023/12/09 01:32:08;;;;;;;;;10.00;8.00;;;;;21.41;42.51;101035.72;111941;1248;21318;-31
2023/12/09 01:34:38;;;;;;;;;7.00;7.00;;;;;21.41;42.23;101031.25;112053;1264;19951;-30
2023/12/09 01:37:06;;;;;;;;;8.00;8.00;;;;;21.40;42.42;101027.70;112055;1264;19943;-31
2023/12/09 01:39:33;;;;;;;;;10.00;7.00;;;;;21.41;42.56;101025.58;111707;1249;390022;-31
2023/12/09 01:42:02;;;;;;;;;9.00;7.50;;;;;21.40;42.26;101017.89;112049;1248;19682;-31
2023/12/09 01:44:30;;;;;;;;;8.00;8.00;;;;;21.40;42.41;101014.89;112072;1264;18604;-31
2023/12/09 01:46:57;;;;;;;;;10.00;8.00;;;;;21.41;42.26;101011.45;111994;1249;19521;-31
2023/12/09 01:49:25;;;;;;;;;8.00;7.50;;;;;21.40;42.63;101008.84;112117;1249;19716;-30
2023/12/09 01:51:52;;;;;;;;;7.00;7.00;;;;;21.40;42.38;101003.29;112000;1264;19957;-30
2023/12/09 01:54:20;;;;;;;;;9.33;7.00;;;;;21.40;42.37;101006.61;112078;1249;20652;-31
2023/12/09 01:56:47;;;;;;;;;7.00;7.00;;;;;21.40;42.44;101004.75;111989;1248;19683;-30
2023/12/09 01:59:14;;;;;;;;;11.00;8.00;;;;;21.40;42.54;101001.10;112110;1249;19977;-31
2023/12/09 02:01:42;;;;;;;;;12.00;10.00;;;;;21.40;42.53;101004.70;111958;1249;20728;-31
2023/12/09 02:04:09;;;;;;;;;5.00;5.00;;;;;21.39;42.35;100998.33;112096;1264;20381;-30
2023/12/09 02:06:37;;;;;;;;;8.00;5.00;;;;;21.39;42.58;100994.45;111969;1249;18482;-30
2023/12/09 02:09:04;;;;;;;;;11.00;9.00;;;;;21.40;42.25;101009.44;112086;1264;19695;-31
2023/12/09 02:11:32;;;;;;;;;11.00;9.00;;;;;21.39;42.47;101006.11;111970;1249;19652;-31
2023/12/09 02:14:00;;;;;;;;;7.67;7.00;;;;;21.39;42.43;101003.02;112048;1264;20148;-31
2023/12/09 02:16:27;;;;;;;;;8.00;7.00;;;;;21.39;42.36;100994.73;111958;1248;20985;-31
2023/12/09 02:18:55;;;;;;;;;11.00;7.50;;;;;21.38;42.45;100994.73;112106;1264;18186;-31
2023/12/09 02:21:22;;;;;;;;;7.50;7.00;;;;;21.40;42.23;100996.97;111968;1248;20193;-31
2023/12/09 02:23:49;;;;;;;;;8.00;8.00;;;;;21.39;42.27;100998.54;112089;1264;20715;-31
2023/12/09 02:26:17;;;;;;;;;10.00;8.00;;;;;21.38;42.06;100992.98;111981;1248;19537;-31
2023/12/09 02:28:44;;;;;;;;;8.00;8.00;;;;;21.38;42.36;100986.60;112081;1264;19145;-31
2023/12/09 02:31:12;;;;;;;;;11.00;8.00;;;;;21.38;42.34;100983.11;111974;1248;20900;-31
2023/12/09 02:33:39;;;;;;;;;9.33;6.33;;;;;21.38;42.15;100980.17;111964;1264;20616;-31
2023/12/09 02:36:07;;;;;;;;;10.50;7.00;;;;;21.35;42.25;100977.02;111996;1249;18610;-31
2023/12/09 02:38:34;;;;;;;;;7.67;7.67;;;;;21.37;42.19;100983.22;111964;1248;22084;-31
2023/12/09 02:41:01;;;;;;;;;8.50;7.00;;;;;21.37;42.19;100981.04;111997;1248;20055;-31
2023/12/09 02:43:29;;;;;;;;;7.00;7.00;;;;;21.37;42.10;100979.79;111908;1264;21052;-31
2023/12/09 02:45:56;;;;;;;;;7.00;7.00;;;;;21.37;42.23;100982.57;111984;1264;20695;-31
2023/12/09 02:48:24;;;;;;;;;8.00;7.00;;;;;21.37;42.18;100979.95;111935;1248;20995;-31
2023/12/09 02:50:51;;;;;;;;;8.00;7.00;;;;;21.37;42.22;100976.19;111994;1264;19031;-31
2023/12/09 02:53:19;;;;;;;;;8.33;7.00;;;;;21.37;42.26;100975.10;111934;1264;19217;-31
2023/12/09 02:55:46;;;;;;;;;10.00;8.00;;;;;21.37;42.29;100970.20;111999;1248;19611;-31
2023/12/09 02:58:15;;;;;;;;;8.00;8.00;;;;;21.37;42.16;100970.80;111996;1264;19974;-31
2023/12/09 03:00:42;;;;;;;;;10.00;10.00;;;;;21.36;42.03;100974.50;111978;1248;21383;-31
2023/12/09 03:03:09;;;;;;;;;7.00;7.00;;;;;21.37;42.08;100978.77;111962;1250;19870;-31
2023/12/09 03:05:37;;;;;;;;;7.00;7.00;;;;;21.37;41.99;100981.31;111980;1264;18597;-31
2023/12/09 03:08:04;;;;;;;;;8.00;7.00;;;;;21.34;42.03;100979.83;111960;1248;20964;-31
2023/12/09 03:10:32;;;;;;;;;;;;;;;21.35;42.13;100976.23;111984;1248;19650;-31
2023/12/09 03:12:59;;;;;;;;;10.00;7.00;;;;;21.34;41.97;100972.05;111983;1264;19629;-31
2023/12/09 03:15:26;;;;;;;;;9.00;7.00;;;;;21.35;42.08;100967.09;112019;1249;22006;-31
2023/12/09 03:17:54;;;;;;;;;7.00;7.00;;;;;21.35;41.85;100958.52;111989;1249;19996;-30
2023/12/09 03:20:22;;;;;;;;;8.00;7.00;;;;;21.35;41.86;100963.98;111999;1264;18545;-31
2023/12/09 03:22:49;;;;;;;;;7.00;7.00;;;;;21.33;41.90;100956.77;111974;1248;20765;-31
2023/12/09 03:25:16;;;;;;;;;10.50;8.00;;;;;21.34;42.07;100954.55;112012;1248;19662;-31
2023/12/09 03:27:44;;;;;;;;;10.00;7.33;;;;;21.35;41.84;100959.45;112036;1263;20741;-31
2023/12/09 03:30:11;;;;;;;;;10.00;8.00;;;;;21.34;41.79;100957.49;112041;1248;21177;-31
2023/12/09 03:32:39;;;;;;;;;10.50;8.00;;;;;21.33;42.02;100953.63;112051;1263;18831;-31
2023/12/09 03:35:07;;;;;;;;;7.67;7.00;;;;;21.35;41.81;100951.83;112053;1248;20022;-31
2023/12/09 03:37:34;;;;;;;;;8.00;7.00;;;;;21.33;41.88;100942.98;112015;1263;21226;-31
2023/12/09 03:40:02;;;;;;;;;4.00;4.00;;;;;21.34;41.61;100940.81;112035;1248;19645;-31
2023/12/09 03:42:29;;;;;;;;;7.00;7.00;;;;;21.34;41.76;100940.27;112039;1263;19009;-31
2023/12/09 03:44:57;;;;;;;;;8.50;8.00;;;;;21.33;41.92;100943.15;112008;1264;20792;-31
2023/12/09 03:47:24;;;;;;;;;8.50;7.00;;;;;21.33;41.76;100938.24;112047;1263;19910;-31
2023/12/09 03:49:51;;;;;;;;;8.00;8.00;;;;;21.33;41.79;100943.32;112008;1263;19958;-31
2023/12/09 03:52:19;;;;;;;;;10.00;10.00;;;;;21.33;41.56;100942.39;112023;1263;20731;-31
2023/12/09 03:54:46;;;;;;;;;6.00;5.00;;;;;21.34;41.66;100945.45;112035;1248;20793;-31
2023/12/09 03:57:14;;;;;;;;;8.00;7.00;;;;;21.35;41.80;100942.29;112087;1263;18607;-30
2023/12/09 03:59:41;;;;;;;;;8.00;8.00;;;;;21.33;41.54;100946.42;112056;1263;19426;-31
2023/12/09 04:02:09;;;;;;;;;8.00;7.00;;;;;21.33;41.50;100945.28;112126;1248;18210;-31
2023/12/09 04:04:36;;;;;;;;;7.00;7.00;;;;;21.32;41.50;100945.12;112087;1248;21590;-31
2023/12/09 04:07:03;;;;;;;;;9.50;8.00;;;;;21.33;41.66;100941.73;112145;1263;19208;-31
2023/12/09 04:09:31;;;;;;;;;10.00;8.50;;;;;21.32;41.61;100940.20;112046;1248;20953;-30
2023/12/09 04:11:58;;;;;;;;;9.00;7.50;;;;;21.32;41.47;100940.76;112115;1263;18651;-30
2023/12/09 04:14:26;;;;;;;;;9.67;8.67;;;;;21.33;41.58;100942.06;111971;1247;20972;-31
2023/12/09 04:16:53;;;;;;;;;8.50;7.50;;;;;21.33;41.66;100935.70;112055;1263;18208;-31
2023/12/09 04:19:21;;;;;;;;;7.50;6.00;;;;;21.34;41.67;100931.66;111957;1263;19058;-31
2023/12/09 04:21:48;;;;;;;;;8.00;8.00;;;;;21.32;41.51;100931.71;112129;1248;19481;-31
2023/12/09 04:24:16;;;;;;;;;8.00;7.50;;;;;21.31;41.70;100926.64;111963;1257;18174;-31
2023/12/09 04:26:43;;;;;;;;;8.33;6.67;;;;;21.32;41.51;100927.90;112080;1257;19090;-31
2023/12/09 04:29:11;;;;;;;;;10.00;10.00;;;;;21.31;41.50;100925.01;111978;1248;20799;-31
2023/12/09 04:31:39;;;;;;;;;8.00;7.00;;;;;21.32;41.41;100921.02;112032;1264;19521;-31
2023/12/09 04:34:06;;;;;;;;;13.00;11.00;;;;;21.32;41.44;100921.58;111988;1249;18671;-30
2023/12/09 04:36:34;;;;;;;;;11.00;10.00;;;;;21.31;41.43;100924.63;112032;1257;22009;-31
2023/12/09 04:39:01;;;;;;;;;16.33;12.33;;;;;21.32;41.59;100928.16;111944;1263;20559;-31
2023/12/09 04:41:29;;;;;;;;;10.50;9.00;;;;;21.31;41.37;100925.11;112062;1249;20666;-31
2023/12/09 04:43:56;;;;;;;;;10.50;9.00;;;;;21.32;41.35;100924.46;111953;1264;19292;-31
2023/12/09 04:46:23;;;;;;;;;8.50;7.50;;;;;21.33;41.34;100925.55;112134;1249;18619;-31
2023/12/09 04:48:51;;;;;;;;;10.00;10.00;;;;;21.34;41.55;100923.27;111980;1248;18784;-31
2023/12/09 04:51:18;;;;;;;;;13.67;10.33;;;;;21.32;41.42;100921.92;112016;1264;22056;-31
2023/12/09 04:53:46;;;;;;;;;16.00;11.00;;;;;21.31;41.50;100917.42;111973;1264;18788;-31
2023/12/09 04:56:13;;;;;;;;;13.00;10.00;;;;;21.31;41.46;100917.21;112048;1264;18665;-31
2023/12/09 04:58:41;;;;;;;;;8.00;8.00;;;;;21.31;41.39;100921.84;112006;1248;20741;-31
2023/12/09 05:01:08;;;;;;;;;12.00;11.00;;;;;21.31;41.46;100924.52;112047;1264;19946;-31
2023/12/09 05:03:36;;;;;;;;;10.00;10.00;;;;;21.30;41.52;100926.75;112005;1250;21617;-31
2023/12/09 05:06:04;;;;;;;;;13.00;13.00;;;;;21.30;41.39;100922.55;112059;1257;20838;-31
2023/12/09 05:08:31;;;;;;;;;15.00;12.00;;;;;21.31;41.49;100919.13;111968;1251;18555;-31
2023/12/09 05:10:59;;;;;;;;;13.00;10.50;;;;;21.30;41.39;100917.48;112099;1264;18969;-31
2023/12/09 05:13:26;;;;;;;;;8.50;8.50;;;;;21.30;41.39;100916.54;111962;1264;20987;-31
2023/12/09 05:15:54;;;;;;;;;14.50;13.00;;;;;21.30;41.46;100913.00;112089;1249;18505;-31
2023/12/09 05:18:21;;;;;;;;;13.00;12.50;;;;;21.28;41.45;100908.60;111997;1248;19048;-31
2023/12/09 05:20:49;;;;;;;;;13.00;10.67;;;;;21.30;41.26;100915.73;112087;1264;21629;-31
2023/12/09 05:23:16;;;;;;;;;11.00;10.50;;;;;21.28;41.42;100925.19;112008;1264;18548;-31
2023/12/09 05:25:44;;;;;;;;;14.50;13.00;;;;;21.29;41.35;100928.69;112205;1247;17857;-31
2023/12/09 05:28:11;;;;;;;;;14.00;13.00;;;;;21.29;41.42;100928.65;112047;1263;18448;-31
2023/12/09 05:30:39;;;;;;;;;16.50;14.00;;;;;21.27;41.25;100926.91;112200;1250;20013;-31
2023/12/09 05:33:06;;;;;;;;;13.00;13.00;;;;;21.27;41.38;100925.65;112051;1263;20070;-30
2023/12/09 05:35:34;;;;;;;;;16.00;13.00;;;;;21.28;41.51;100925.98;112242;1257;19556;-31
2023/12/09 05:38:01;;;;;;;;;13.00;11.00;;;;;21.28;41.60;100926.20;112040;1263;18722;-30
2023/12/09 05:40:29;;;;;;;;;14.00;11.00;;;;;21.27;41.45;100925.92;112282;1263;18812;-31
2023/12/09 05:42:56;;;;;;;;;13.00;13.00;;;;;21.27;41.32;100924.13;112068;1248;21003;-30
2023/12/09 05:45:23;;;;;;;;;16.67;15.00;;;;;21.28;41.58;100927.06;112218;1263;18574;-31
2023/12/09 05:47:51;;;;;;;;;11.00;10.67;;;;;21.28;41.31;100921.60;112072;1263;18625;-31
2023/12/09 05:50:18;;;;;;;;;13.00;12.67;;;;;21.27;41.36;100918.73;112211;1256;18601;-31
2023/12/09 05:52:46;;;;;;;;;12.00;11.00;;;;;21.28;41.24;100921.62;112089;1248;18584;-31
2023/12/09 05:55:13;;;;;;;;;14.00;13.00;;;;;21.27;41.38;100923.69;112089;1248;18876;-31
2023/12/09 05:57:40;;;;;;;;;11.00;11.00;;;;;21.27;41.47;100919.11;112091;1263;19339;-31
2023/12/09 06:00:08;;;;;;;;;11.00;11.00;;;;;21.26;41.23;100913.13;111983;1263;19957;-31
2023/12/09 06:02:36;;;;;;;;;22.50;16.00;;;;;21.26;41.43;100914.42;112093;1263;18643;-31
2023/12/09 06:05:03;;;;;;;;;14.00;14.00;;;;;21.27;41.42;100916.50;111975;1263;19311;-31
2023/12/09 06:07:31;;;;;;;;;14.00;13.00;;;;;21.29;41.32;100923.74;112061;1251;20060;-31
2023/12/09 06:09:58;;;;;;;;;14.00;13.50;;;;;21.28;41.41;100921.89;112031;1248;20118;-31
2023/12/09 06:12:26;;;;;;;;;14.00;13.50;;;;;21.27;41.16;100917.05;112105;1256;21119;-31
2023/12/09 06:14:53;;;;;;;;;13.00;12.00;;;;;21.27;41.16;100915.95;111965;1263;19949;-30
2023/12/09 06:17:21;;;;;;;;;14.00;13.00;;;;;21.26;41.28;100916.93;112084;1263;19081;-31
2023/12/09 06:19:48;;;;;;;;;13.00;11.00;;;;;21.26;41.26;100920.80;111978;1248;20741;-30
2023/12/09 06:22:15;;;;;;;;;13.00;13.00;;;;;21.26;41.56;100925.48;112102;1263;19908;-30
2023/12/09 06:24:43;;;;;;;;;13.50;12.00;;;;;21.26;41.41;100927.12;111935;1263;18928;-30
2023/12/09 06:27:12;;;;;;;;;11.00;11.00;;;;;21.27;41.40;100926.85;112002;1264;21898;-30
2023/12/09 06:29:39;;;;;;;;;14.00;13.00;;;;;21.26;41.43;100926.25;112116;1249;19933;-30
2023/12/09 06:32:07;;;;;;;;;10.50;10.50;;;;;21.26;41.17;100926.58;111934;1264;21249;-31
2023/12/09 06:34:34;;;;;;;;;13.00;11.00;;;;;21.26;41.27;100920.52;112090;1248;20719;-31
2023/12/09 06:37:02;;;;;;;;;12.50;11.00;;;;;21.26;41.47;100919.55;111950;1264;19866;-31
2023/12/09 06:39:29;;;;;;;;;13.00;10.00;;;;;21.27;41.41;100914.36;112012;1248;20061;-31
2023/12/09 06:41:57;;;;;;;;;15.50;13.50;;;;;21.25;41.32;100916.71;111989;1264;20935;-30
2023/12/09 06:44:26;;;;;;;;;11.00;11.00;;;;;21.26;41.03;100913.98;111969;1264;18543;-31
2023/12/09 06:46:54;;;;;;;;;14.00;11.00;;;;;21.26;41.26;100913.12;111947;1264;20013;-31
2023/12/09 06:49:22;;;;;;;;;14.00;13.00;;;;;21.25;41.18;100911.86;111976;1264;20860;-30
2023/12/09 06:51:49;;;;;;;;;13.50;13.00;;;;;21.25;41.10;100912.45;111951;1264;18710;-31
2023/12/09 06:54:17;;;;;;;;;10.00;10.00;;;;;21.23;41.33;100911.96;111971;1264;19951;-30
2023/12/09 06:56:44;;;;;;;;;13.00;11.00;;;;;21.23;41.49;100915.72;111938;1250;20954;-30
2023/12/09 06:59:12;;;;;;;;;13.00;11.00;;;;;21.24;41.50;100915.73;111958;1249;19961;-30
2023/12/09 07:01:39;;;;;;;;;11.00;10.00;;;;;21.24;41.57;100914.47;111950;1264;19928;-30
2023/12/09 07:04:09;;;;;;;;;11.00;10.00;;;;;21.25;41.45;100910.93;111967;1257;19367;-30
2023/12/09 07:06:36;;;;;;;;;10.00;10.00;;;;;21.25;41.70;100905.65;112001;1249;20189;-30
2023/12/09 07:09:03;;;;;;;;;13.00;10.50;;;;;21.36;41.33;100910.79;111991;1257;20081;-30
2023/12/09 07:11:32;;;;;;;;;14.00;11.00;;;;;21.42;41.34;100911.35;112048;1248;19372;-30
2023/12/09 07:14:00;;;;;;;;;8.50;7.50;;;;;21.37;41.80;100909.77;111967;1248;20008;-30
2023/12/09 07:16:27;;;;;;;;;10.00;9.67;;;;;21.38;41.72;100909.38;111936;1250;20215;-30
2023/12/09 07:18:58;;;;;;;;;10.00;10.00;;;;;21.43;42.03;100911.67;111954;1264;19304;-30
2023/12/09 07:21:26;;;;;;;;;11.00;11.00;;;;;21.38;41.89;100911.66;112014;1248;19954;-30
2023/12/09 07:23:53;;;;;;;;;11.50;10.00;;;;;21.37;41.97;100903.92;112015;1248;20461;-31
2023/12/09 07:26:21;;;;;;;;;11.00;10.00;;;;;21.38;41.95;100903.92;112101;1248;20755;-31
2023/12/09 07:28:48;;;;;;;;;11.00;8.00;;;;;21.33;42.40;100902.02;112035;1248;19987;-31
2023/12/09 07:31:16;;;;;;;;;10.00;8.00;;;;;21.32;42.30;100906.75;112072;1263;18672;-31
2023/12/09 07:33:43;;;;;;;;;8.50;8.50;;;;;21.36;42.15;100910.41;112022;1248;22092;-30
2023/12/09 07:36:11;;;;;;;;;22.00;18.00;;;;;21.40;41.73;100911.71;112045;1263;18552;-31
2023/12/09 07:38:38;;;;;;;;;16.00;13.00;;;;;21.37;40.48;100908.94;112048;1247;20137;-31
2023/12/09 07:41:05;;;;;;;;;13.00;13.00;;;;;21.26;40.10;100907.51;111992;1263;20907;-31
2023/12/09 07:43:33;;;;;;;;;11.33;10.33;;;;;21.21;41.35;100900.71;112064;1248;20041;-31
2023/12/09 07:46:00;;;;;;;;;11.33;11.33;;;;;21.17;41.25;100895.03;111994;1248;18715;-31
2023/12/09 07:48:29;;;;;;;;;15.33;12.67;;;;;21.18;40.87;100893.13;112138;1247;20644;-31
2023/12/09 07:50:56;;;;;;;;;14.00;13.00;;;;;21.19;40.83;100887.67;111996;1248;21153;-31
2023/12/09 07:53:23;;;;;;;;;16.00;13.00;;;;;21.20;40.69;100884.91;112108;1263;20148;-31
2023/12/09 07:55:51;;;;;;;;;11.33;9.67;;;;;21.22;40.72;100883.07;111953;1248;19488;-31
2023/12/09 07:58:18;;;;;;;;;14.00;11.00;;;;;21.23;40.45;100877.80;112093;1263;18517;-31
2023/12/09 08:00:46;;;;;;;;;16.50;15.00;;;;;21.27;40.35;100883.15;111935;1248;20475;-31
2023/12/09 08:03:14;;;;;;;;;13.33;12.67;;;;;21.25;40.24;100879.60;112183;1248;20718;-31
2023/12/09 08:05:41;;;;;;;;;15.67;14.00;;;;;21.25;40.15;100881.89;111995;1263;20343;-31
2023/12/09 08:08:10;;;;;;;;;16.00;13.00;;;;;21.25;40.07;100880.20;112180;1257;20064;-31
2023/12/09 08:10:38;;;;;;;;;16.67;13.67;;;;;21.27;40.84;100872.95;112077;1263;20692;-31
2023/12/09 08:13:05;;;;;;;;;15.50;11.00;;;;;21.28;40.85;100870.56;112062;1263;19947;-31
2023/12/09 08:15:33;;;;;;;;;19.00;17.00;;;;;21.32;40.67;100868.88;112069;1263;20745;-31
2023/12/09 08:18:01;;;;;;;;;40.67;37.67;;;;;21.46;41.02;100872.48;112024;1263;19348;-31
2023/12/09 08:20:28;;;;;;;;;37.00;30.00;;;;;21.43;41.07;100873.14;112064;1248;20282;-31
2023/12/09 08:22:55;;;;;;;;;37.50;34.00;;;;;21.41;41.68;100879.19;112050;1248;20327;-30
2023/12/09 08:25:23;;;;;;;;;31.00;28.00;;;;;21.41;42.34;100877.83;112071;1257;19338;-30
2023/12/09 08:27:51;;;;;;;;;35.00;29.00;;;;;21.41;42.20;100877.77;112016;1251;18716;-30
2023/12/09 08:30:18;;;;;;;;;38.00;34.00;;;;;21.43;42.51;100875.59;112067;1264;18717;-30
2023/12/09 08:32:45;;;;;;;;;36.00;30.00;;;;;21.46;43.43;100877.23;112007;1264;19269;-30
2023/12/09 08:35:13;;;;;;;;;38.00;34.00;;;;;21.44;43.52;100877.72;112051;1248;19974;-30
2023/12/09 08:37:40;;;;;;;;;37.00;34.00;;;;;21.49;43.46;100875.76;112052;1264;18752;-30
2023/12/09 08:40:10;;;;;;;;;37.50;34.00;;;;;21.46;43.76;100874.29;112026;1248;20736;-30
2023/12/09 08:42:37;;;;;;;;;42.00;35.00;;;;;21.46;44.25;100875.38;111962;1264;20265;-30
2023/12/09 08:45:05;;;;;;;;;44.00;37.00;;;;;21.53;44.36;100878.16;112061;1248;21404;-30
2023/12/09 08:47:32;;;;;;;;;43.00;41.00;;;;;21.55;44.35;100875.98;111964;1248;22199;-29
2023/12/09 08:50:00;;;;;;;;;35.00;34.00;;;;;21.49;44.68;100872.44;112075;1257;20006;-30
2023/12/09 08:52:27;;;;;;;;;33.33;30.67;;;;;21.59;44.83;100870.09;111940;1264;20374;-30
2023/12/09 08:54:55;;;;;;;;;32.00;29.00;;;;;21.64;45.06;100871.79;112076;1249;19606;-29
2023/12/09 08:57:22;;;;;;;;;27.00;26.00;;;;;21.61;44.71;100870.64;111922;1264;20159;-30
2023/12/09 08:59:50;;;;;;;;;28.00;23.00;;;;;21.60;44.84;100868.13;112101;1249;20362;-31
2023/12/09 09:02:17;;;;;;;;;26.33;25.00;;;;;21.56;44.64;100863.88;111932;1264;20548;-31
2023/12/09 09:04:44;;;;;;;;;64.50;49.50;;;;;21.53;45.17;100862.02;111888;1264;18596;-31
2023/12/09 09:07:12;;;;;;;;;111.00;82.50;;;;;21.54;45.40;100857.55;111909;1248;20179;-30
2023/12/09 09:09:39;;;;;;;;;213.00;165.50;;;;;21.60;45.46;100854.45;111871;1257;21235;-31
2023/12/09 09:12:07;;;;;;;;;188.67;141.33;;;;;21.64;45.39;100847.84;111893;1256;20709;-30
2023/12/09 09:14:34;;;;;;;;;183.00;131.00;;;;;21.64;45.97;100846.91;111905;1257;20551;-31
2023/12/09 09:17:02;;;;;;;;;146.00;111.00;;;;;21.63;46.13;100847.68;111894;1248;20774;-30
2023/12/09 09:19:29;;;;;;;;;149.50;103.00;;;;;21.60;46.17;100844.36;111866;1264;20398;-31
2023/12/09 09:21:57;;;;;;;;;115.50;89.00;;;;;21.57;45.53;100838.53;111886;1264;21547;-30
2023/12/09 09:24:25;;;;;;;;;108.50;75.50;;;;;21.60;46.13;100837.16;111869;1264;20713;-31
2023/12/09 09:26:52;;;;;;;;;101.50;75.00;;;;;21.67;46.10;100836.95;111888;1248;20654;-30
2023/12/09 09:29:20;;;;;;;;;88.00;67.00;;;;;21.65;45.92;100831.05;111889;1248;20540;-30
2023/12/09 09:31:47;;;;;;;;;84.00;62.00;;;;;21.63;46.17;100831.59;111895;1249;20824;-30
2023/12/09 09:34:15;;;;;;;;;93.00;66.50;;;;;21.64;46.15;100827.02;111899;1249;18901;-30
2023/12/09 09:36:44;;;;;;;;;82.00;60.00;;;;;21.64;46.36;100824.61;111922;1264;18865;-30
2023/12/09 09:39:13;;;;;;;;;;;;;;;21.65;46.20;100820.70;111954;1257;19565;-30
2023/12/09 09:41:40;;;;;;;;;65.00;50.00;;;;;21.68;46.16;100819.66;112064;1264;18538;-30
2023/12/09 09:44:08;;;;;;;;;60.50;47.50;;;;;21.66;46.22;100821.35;111972;1264;18890;-30
2023/12/09 09:46:35;;;;;;;;;66.33;49.67;;;;;21.63;45.62;100814.54;112076;1248;20777;-30
2023/12/09 09:49:03;;;;;;;;;66.00;48.00;;;;;21.59;45.58;100814.16;111982;1256;19977;-30
2023/12/09 09:51:30;;;;;;;;;58.00;47.00;;;;;21.56;45.75;100807.79;112043;1264;21318;-30
2023/12/09 09:53:58;;;;;;;;;59.00;46.00;;;;;21.59;45.37;100808.92;111969;1264;19331;-31
2023/12/09 09:56:25;;;;;;;;;44.00;37.00;;;;;21.59;45.91;100807.23;112058;1250;19974;-30
2023/12/09 09:58:52;;;;;;;;;45.00;40.00;;;;;21.56;46.64;100806.15;111997;1248;18670;-30
2023/12/09 10:01:20;;;;;;;;;32.50;31.00;;;;;21.51;46.29;100803.59;112041;1264;20721;-30
2023/12/09 10:03:48;;;;;;;;;33.50;32.50;;;;;21.51;46.38;100805.34;111917;1264;19970;-30
2023/12/09 10:06:16;;;;;;;;;36.00;32.00;;;;;21.54;46.21;100798.67;112046;1248;20280;-30
2023/12/09 10:08:43;;;;;;;;;31.00;28.00;;;;;21.52;45.93;100797.98;111952;1248;20827;-31
2023/12/09 10:11:11;;;;;;;;;29.00;25.00;;;;;21.51;45.65;100790.73;112015;1264;20445;-31
2023/12/09 10:13:38;;;;;;;;;38.33;26.00;;;;;21.54;45.38;100793.29;111946;1264;20229;-31
2023/12/09 10:16:06;;;;;;;;;25.00;22.50;;;;;21.57;45.30;100789.63;112051;1249;19190;-31
2023/12/09 10:18:33;;;;;;;;;22.50;19.50;;;;;21.55;45.11;100786.30;111980;1248;20049;-31
2023/12/09 10:21:02;;;;;;;;;23.00;20.00;;;;;21.51;45.31;100779.98;112001;1248;21242;-31
2023/12/09 10:23:30;;;;;;;;;27.00;22.50;;;;;21.48;45.36;100772.69;112063;1264;21411;-31
2023/12/09 10:25:58;;;;;;;;;28.00;23.00;;;;;21.43;45.18;100769.09;111919;1248;19992;-31
2023/12/09 10:28:25;;;;;;;;;19.00;17.00;;;;;21.40;45.51;100767.58;112055;1248;20221;-31
2023/12/09 10:30:52;;;;;;;;;26.00;20.00;;;;;21.40;45.30;100764.95;111982;1249;20750;-31
2023/12/09 10:33:20;;;;;;;;;21.50;16.00;;;;;21.44;45.35;100759.39;112024;1264;20147;-31
2023/12/09 10:35:47;;;;;;;;;20.00;19.00;;;;;21.55;44.69;100753.11;111970;1249;20222;-31
2023/12/09 10:38:15;;;;;;;;;19.00;14.00;;;;;21.56;45.29;100752.62;111967;1250;19324;-31
2023/12/09 10:40:42;;;;;;;;;19.00;17.00;;;;;21.56;46.26;100749.18;111956;1249;20401;-31
2023/12/09 10:43:09;;;;;;;;;24.00;17.00;;;;;21.51;46.07;100742.48;111965;1249;19896;-31
2023/12/09 10:45:37;;;;;;;;;17.00;16.00;;;;;21.47;46.28;100740.64;111972;1248;20761;-31
2023/12/09 10:48:05;;;;;;;;;20.50;17.50;;;;;21.48;45.92;100739.81;111942;1264;18564;-31
2023/12/09 10:50:32;;;;;;;;;19.50;17.00;;;;;21.51;45.88;100740.30;112008;1264;19111;-31
2023/12/09 10:52:59;;;;;;;;;17.00;14.00;;;;;21.52;45.76;100739.48;111961;1264;20713;-31
2023/12/09 10:55:27;;;;;;;;;17.67;16.67;;;;;21.52;45.65;100730.00;111981;1264;18964;-31
2023/12/09 10:57:54;;;;;;;;;19.00;16.00;;;;;21.55;45.68;100729.51;112007;1248;20129;-31
2023/12/09 11:00:22;;;;;;;;;16.67;15.33;;;;;21.55;45.63;100718.33;112000;1249;21104;-31
2023/12/09 11:02:49;;;;;;;;;19.33;17.00;;;;;21.54;45.56;100714.36;112015;1264;19964;-31
2023/12/09 11:05:16;;;;;;;;;14.00;14.00;;;;;21.54;45.58;100707.10;111984;1250;20442;-31
2023/12/09 11:07:46;;;;;;;;;17.67;14.00;;;;;21.53;45.25;100706.73;111980;1264;20815;-31